Wallington, NJ

11:15 AM EST on March 02, 2015 (GMT -0500)
Teterboro | Change Station
CLOSE
Current Station
Airport
Location: Teterboro,
Elevation: 7 ft
Nearby Weather Stations

Elev 7 ft 40.86 °N, 74.06 °W | Updated 24 minutes ago

Overcast
Overcast
34 °F
Feels Like 21 °F
N
25
Wind Variable Wind from WNW
Gusts 33 mph

Today
High -- | Low -- °F
--% Chance of Precip.
Yesterday
High -- | Low -- °F
Precip. -- in
6:29 AM 5:48 PM
Waxing Gibbous, 92% visible
Pressure 30.16 in
Visibility 10.0 miles
Clouds Few 4300 ft
Windchill 21 °F
Dew Point 17 °F
Humidity 50%
Rainfall 0.00 in
Snow Depth Not available.
UV 4 out of 12
Pollen .50 out of 12
Air Quality Not available.
Flu Activity Not available.
METAR KTEB 021551Z 30022G29KT 10SM FEW043 01/M08 A3016 RMK AO2 PK WND 29029/1551 SNB00E32 SLP211 P0000 T00111083

More Conditions Fewer Conditions

Pressure 30.16 in
Visibility 10.0 miles
Clouds Few 4300 ft
Windchill 21 °F
Dew Point 17 °F
Humidity 50%
Rainfall 0.00 in
Snow Depth Not available.
UV 4 out of 12
Pollen .50 out of 12
Air Quality Not available.
Flu Activity Not available.
METAR KTEB 021551Z 30022G29KT 10SM FEW043 01/M08 A3016 RMK AO2 PK WND 29029/1551 SNB00E32 SLP211 P0000 T00111083

More Conditions Fewer Conditions

10-Day Weather Forecast

Almanac

Astronomy

Mar. 02, 2015 Rise Set
Actual Time
Civil Twilight
Nautical Twilight
Astronomical Twilight
Moon
Length of Visible Light
Length of Day
Tomorrow will be .
, % of the Moon is Illuminated

Today's Extremes

State Highs State Lows

Community

WunderPhotos

Upload Photos

1,801,835 photos uploaded!

WunderBlogs® & News

Nearby

Air Quality

  Air Quality AQ Index Pollutant
Not available.

Snow Depth

Station Depth Elevation

Earthquake Activity

City Distance Mag. Time & Date
Minimum magnitude displayed is 2.5.

Coastal Water Temperatures

Place Temperature

Nearby Weather Stations